Time;durP1;ratioP1;P1;durP2;ratioP2;P2;SDS_P1;SDS_P2;PMS_P1;PMS_P2;Temp;Humidity;BMP_temperature;BMP_pressure;BME280_temperature;BME280_humidity;BME280_pressure;Samples;Min_cycle;Max_cycle;Signal;HPM_P1;HPM_P2
2024/01/23 00:00:29;;;;;;;1.70;0.73;;;6.80;21.90;;;;;;4936126;29;20211;-68
2024/01/23 00:02:54;;;;;;;8.73;1.93;;;6.80;21.30;;;;;;4934623;29;20720;-68
2024/01/23 00:05:20;;;;;;;3.50;2.00;;;6.80;21.30;;;;;;4935739;29;20643;-68
2024/01/23 00:07:45;;;;;;;3.80;1.53;;;6.80;21.30;;;;;;4935841;29;20187;-68
2024/01/23 00:10:11;;;;;;;2.00;0.87;;;6.70;21.20;;;;;;4936182;29;20572;-67
2024/01/23 00:12:37;;;;;;;2.70;1.20;;;6.60;21.70;;;;;;4935724;29;20563;-67
2024/01/23 00:15:03;;;;;;;1.70;0.90;;;6.60;21.80;;;;;;4935660;29;20219;-68
2024/01/23 00:17:29;;;;;;;4.40;1.23;;;6.60;21.20;;;;;;4935682;29;20185;-69
2024/01/23 00:19:56;;;;;;;3.60;1.40;;;6.60;21.20;;;;;;4935646;29;20429;-69
2024/01/23 00:22:22;;;;;;;3.20;1.00;;;6.60;21.10;;;;;;4935604;29;20234;-69
2024/01/23 00:24:47;;;;;;;6.93;1.10;;;6.60;20.00;;;;;;4935486;29;20447;-69
2024/01/23 00:27:13;;;;;;;2.43;1.50;;;6.50;20.90;;;;;;4935721;29;20263;-68
2024/01/23 00:29:38;;;;;;;4.07;0.70;;;6.50;17.50;;;;;;4935535;29;20210;-69
2024/01/23 00:32:05;;;;;;;1.77;0.87;;;6.50;17.70;;;;;;4935662;29;20196;-68
2024/01/23 00:34:30;;;;;;;2.67;1.00;;;6.50;18.30;;;;;;4935220;29;20214;-69
2024/01/23 00:36:56;;;;;;;3.10;1.23;;;6.30;19.00;;;;;;4935450;29;20776;-69
2024/01/23 00:39:23;;;;;;;3.23;1.10;;;6.30;20.60;;;;;;4935524;29;20552;-69
2024/01/23 00:41:49;;;;;;;4.00;1.30;;;6.20;20.90;;;;;;4935367;29;20187;-69
2024/01/23 00:44:14;;;;;;;2.67;1.03;;;6.20;20.90;;;;;;4935159;29;20819;-69
2024/01/23 00:46:40;;;;;;;4.53;1.00;;;6.10;20.30;;;;;;4935147;29;20695;-69
2024/01/23 00:49:05;;;;;;;3.70;0.90;;;6.10;19.90;;;;;;4935199;29;20556;-69
2024/01/23 00:51:31;;;;;;;3.40;1.37;;;6.10;19.90;;;;;;4935348;29;20221;-70
2024/01/23 00:53:58;;;;;;;2.70;0.90;;;6.10;20.90;;;;;;4934895;29;20199;-70
2024/01/23 00:56:23;;;;;;;2.30;1.07;;;6.20;21.10;;;;;;4935106;29;20446;-69
2024/01/23 00:58:49;;;;;;;2.50;1.13;;;6.20;20.90;;;;;;4933570;29;20423;-69
2024/01/23 01:01:14;;;;;;;3.60;1.17;;;6.30;21.50;;;;;;4934291;29;20184;-69
2024/01/23 01:03:40;;;;;;;3.83;1.40;;;6.30;21.00;;;;;;4934856;29;20229;-69
2024/01/23 01:06:05;;;;;;;3.60;1.37;;;6.20;22.40;;;;;;4934799;29;20183;-69
2024/01/23 01:08:31;;;;;;;3.87;1.10;;;6.20;23.30;;;;;;4934969;29;20231;-69
2024/01/23 01:10:57;;;;;;;2.10;0.80;;;6.20;23.00;;;;;;4934898;29;20339;-69
2024/01/23 01:13:23;;;;;;;2.10;1.03;;;6.20;23.20;;;;;;4934890;29;20212;-69
2024/01/23 01:15:48;;;;;;;5.67;1.50;;;6.00;23.30;;;;;;4934682;29;20449;-69
2024/01/23 01:18:14;;;;;;;2.43;1.27;;;6.00;23.80;;;;;;4934609;29;20411;-69
2024/01/23 01:20:40;;;;;;;2.57;0.90;;;6.00;24.20;;;;;;4935551;29;20187;-69
2024/01/23 01:23:05;;;;;;;4.47;1.63;;;5.90;23.90;;;;;;4934973;29;20210;-70
2024/01/23 01:25:31;;;;;;;2.00;0.90;;;6.00;21.90;;;;;;4933447;29;20192;-69
2024/01/23 01:27:56;;;;;;;2.23;0.97;;;6.10;20.80;;;;;;4935171;29;20190;-69
2024/01/23 01:30:26;;;;;;;8.40;2.07;;;6.20;19.90;;;;;;4934891;29;20236;-69
2024/01/23 01:32:52;;;;;;;5.83;2.87;;;6.30;19.30;;;;;;4936219;29;20283;-69
2024/01/23 01:35:17;;;;;;;2.70;1.20;;;6.30;20.00;;;;;;4935227;29;20522;-69
2024/01/23 01:37:43;;;;;;;2.93;1.00;;;6.30;19.80;;;;;;4934670;29;20270;-69
2024/01/23 01:40:09;;;;;;;4.63;1.73;;;6.30;19.90;;;;;;4934959;29;20191;-68
2024/01/23 01:42:35;;;;;;;3.43;1.33;;;6.30;19.70;;;;;;4934899;29;20678;-69
2024/01/23 01:45:00;;;;;;;2.90;1.17;;;6.30;20.90;;;;;;4934368;29;20421;-69
2024/01/23 01:47:26;;;;;;;4.30;1.30;;;6.30;21.00;;;;;;4935046;29;20421;-69
2024/01/23 01:49:52;;;;;;;3.13;0.70;;;6.30;20.50;;;;;;4935329;29;20305;-69
2024/01/23 01:52:19;;;;;;;2.53;1.07;;;6.30;19.70;;;;;;4935138;29;20421;-69
2024/01/23 01:54:46;;;;;;;2.60;1.10;;;6.20;19.20;;;;;;4935383;29;20514;-69
2024/01/23 01:57:13;;;;;;;2.23;1.07;;;6.20;20.80;;;;;;4934830;29;20417;-69
2024/01/23 01:59:38;;;;;;;2.63;0.87;;;6.00;20.60;;;;;;4934315;29;20427;-69
2024/01/23 02:02:07;;;;;;;2.33;0.80;;;5.90;21.10;;;;;;4933125;29;20435;-69
2024/01/23 02:04:32;;;;;;;2.73;1.17;;;5.80;22.10;;;;;;4934231;29;20269;-69
2024/01/23 02:06:58;;;;;;;1.83;0.87;;;5.70;23.00;;;;;;4934400;29;20427;-69
2024/01/23 02:09:23;;;;;;;2.83;1.00;;;5.60;23.40;;;;;;4934115;29;20683;-68
2024/01/23 02:12:00;;;;;;;4.57;0.93;;;5.60;23.00;;;;;;4934339;29;20194;-68
2024/01/23 02:14:26;;;;;;;3.57;1.10;;;5.60;23.00;;;;;;4937633;29;20200;-67
2024/01/23 02:16:53;;;;;;;4.03;1.53;;;5.60;24.40;;;;;;4936903;29;20453;-68
2024/01/23 02:19:18;;;;;;;6.27;1.13;;;5.70;23.10;;;;;;4938976;29;20422;-69
2024/01/23 02:21:44;;;;;;;1.90;1.07;;;5.80;22.80;;;;;;4939070;29;20422;-68
2024/01/23 02:24:09;;;;;;;4.83;1.93;;;5.80;22.10;;;;;;4938483;29;20190;-69
2024/01/23 02:26:35;;;;;;;5.77;1.60;;;5.80;21.90;;;;;;4938369;29;20325;-69
2024/01/23 02:29:00;;;;;;;3.27;1.20;;;5.80;21.40;;;;;;4938514;29;20678;-68
2024/01/23 02:31:26;;;;;;;3.17;1.27;;;5.90;20.70;;;;;;4938367;29;20253;-68
2024/01/23 02:33:51;;;;;;;2.27;1.23;;;5.90;20.70;;;;;;4937771;29;20682;-67
2024/01/23 02:36:17;;;;;;;4.93;1.70;;;5.90;20.30;;;;;;4937912;29;20179;-69
2024/01/23 02:38:42;;;;;;;5.20;1.40;;;6.00;20.20;;;;;;4938123;29;20197;-68
2024/01/23 02:41:09;;;;;;;6.50;2.03;;;6.00;19.00;;;;;;4938575;29;20603;-68
2024/01/23 02:43:36;;;;;;;3.70;1.10;;;6.00;18.60;;;;;;4937107;29;20301;-68
2024/01/23 02:46:02;;;;;;;6.40;2.10;;;6.00;18.50;;;;;;4939022;29;20422;-69
2024/01/23 02:48:28;;;;;;;5.13;2.43;;;6.00;19.00;;;;;;4939323;29;20428;-68
2024/01/23 02:50:53;;;;;;;5.90;2.00;;;6.10;18.30;;;;;;4939455;29;20515;-68
2024/01/23 02:53:19;;;;;;;6.47;1.73;;;6.10;17.60;;;;;;4937988;29;20207;-68
2024/01/23 02:55:44;;;;;;;5.30;1.60;;;6.10;16.60;;;;;;4939737;29;20189;-68
2024/01/23 02:58:10;;;;;;;12.13;2.20;;;6.20;16.50;;;;;;4939198;29;20587;-70
2024/01/23 03:00:38;;;;;;;3.93;1.43;;;6.30;16.40;;;;;;4939257;29;20187;-69
2024/01/23 03:03:04;;;;;;;2.00;0.80;;;6.20;16.30;;;;;;4939753;29;20212;-69
2024/01/23 03:05:30;;;;;;;9.60;1.90;;;6.30;16.30;;;;;;4939891;29;20424;-69
2024/01/23 03:07:55;;;;;;;5.30;1.57;;;6.30;16.80;;;;;;4938225;29;20534;-69
2024/01/23 03:10:21;;;;;;;5.00;1.73;;;6.40;16.00;;;;;;4939626;29;20310;-68
2024/01/23 03:12:46;;;;;;;5.30;2.63;;;6.40;16.10;;;;;;4938657;29;20223;-68
2024/01/23 03:15:12;;;;;;;3.83;1.57;;;6.40;16.00;;;;;;4938014;29;20177;-68
2024/01/23 03:17:38;;;;;;;8.93;1.80;;;6.40;16.20;;;;;;4938219;29;20188;-68
2024/01/23 03:20:04;;;;;;;4.23;2.37;;;6.40;16.00;;;;;;4939191;29;20188;-69
2024/01/23 03:22:30;;;;;;;7.40;2.40;;;6.40;16.40;;;;;;4938581;29;20191;-69
2024/01/23 03:24:55;;;;;;;2.57;0.90;;;6.40;16.70;;;;;;4937167;29;20977;-68
2024/01/23 03:27:21;;;;;;;5.83;2.20;;;6.40;16.80;;;;;;4937161;29;20289;-68
2024/01/23 03:29:52;;;;;;;3.70;1.47;;;6.40;16.80;;;;;;4936438;29;20214;-69
2024/01/23 03:32:18;;;;;;;16.47;2.37;;;6.40;16.70;;;;;;4937593;29;20977;-69
2024/01/23 03:34:43;;;;;;;7.23;1.33;;;6.40;16.80;;;;;;4937701;29;20480;-69
2024/01/23 03:37:09;;;;;;;5.00;1.40;;;6.40;16.80;;;;;;4938187;29;20197;-69
2024/01/23 03:39:35;;;;;;;3.03;1.27;;;6.40;17.30;;;;;;4938229;29;20506;-69
2024/01/23 03:42:02;;;;;;;5.13;1.80;;;6.30;17.50;;;;;;4937439;29;20190;-69
2024/01/23 03:44:28;;;;;;;4.07;1.80;;;6.30;17.80;;;;;;4935904;29;20287;-69
2024/01/23 03:46:54;;;;;;;4.30;1.20;;;6.30;18.20;;;;;;4937499;29;20984;-69
2024/01/23 03:49:21;;;;;;;7.13;1.43;;;6.30;18.60;;;;;;4937105;29;20184;-69
2024/01/23 03:51:47;;;;;;;5.10;2.57;;;6.30;18.70;;;;;;4937126;29;20462;-69
2024/01/23 03:54:13;;;;;;;7.57;1.67;;;6.30;18.70;;;;;;4936855;29;20526;-69
2024/01/23 03:56:39;;;;;;;8.40;3.03;;;6.30;18.30;;;;;;4938221;29;20444;-68
2024/01/23 03:59:04;;;;;;;3.93;2.13;;;6.40;18.50;;;;;;4938273;29;20262;-69
2024/01/23 04:01:30;;;;;;;4.27;1.90;;;6.40;18.60;;;;;;4937664;29;20193;-68
2024/01/23 04:03:55;;;;;;;12.87;2.07;;;6.40;18.20;;;;;;4938502;29;20706;-70
2024/01/23 04:06:21;;;;;;;5.13;1.30;;;6.40;17.80;;;;;;4939243;29;20643;-69
2024/01/23 04:08:46;;;;;;;4.30;1.60;;;6.30;18.80;;;;;;4939357;29;20214;-68
2024/01/23 04:11:12;;;;;;;6.60;2.10;;;6.30;18.50;;;;;;4937397;29;20211;-69
2024/01/23 04:13:38;;;;;;;6.10;2.10;;;6.30;18.50;;;;;;4938000;29;20202;-68
2024/01/23 04:16:05;;;;;;;8.03;1.60;;;6.40;17.40;;;;;;4935974;29;20172;-68
2024/01/23 04:18:31;;;;;;;3.57;1.60;;;6.30;17.40;;;;;;4937589;29;20540;-68
2024/01/23 04:20:56;;;;;;;5.67;1.70;;;6.40;18.40;;;;;;4937298;29;20420;-69
2024/01/23 04:23:22;;;;;;;3.40;1.33;;;6.40;18.30;;;;;;4936682;29;20202;-69
2024/01/23 04:25:47;;;;;;;4.73;1.50;;;6.40;18.60;;;;;;4937649;29;20203;-69
2024/01/23 04:28:13;;;;;;;4.90;2.00;;;6.40;18.80;;;;;;4937897;29;20179;-68
2024/01/23 04:30:39;;;;;;;5.10;2.30;;;6.30;20.10;;;;;;4935690;29;20591;-69
2024/01/23 04:33:04;;;;;;;4.77;2.20;;;6.30;21.00;;;;;;4937205;29;20270;-68
2024/01/23 04:35:30;;;;;;;7.13;1.70;;;6.20;23.00;;;;;;4936722;29;20262;-68
2024/01/23 04:37:55;;;;;;;5.40;1.43;;;6.20;25.40;;;;;;4935965;29;20310;-69
2024/01/23 04:40:21;;;;;;;3.03;1.77;;;6.10;27.90;;;;;;4937212;29;20191;-68
2024/01/23 04:42:46;;;;;;;4.00;1.17;;;6.10;28.70;;;;;;4936464;29;20202;-69
2024/01/23 04:45:13;;;;;;;5.30;2.00;;;6.10;29.00;;;;;;4937523;29;20655;-69
2024/01/23 04:47:38;;;;;;;9.03;2.20;;;6.00;29.00;;;;;;4937902;29;20216;-69
2024/01/23 04:50:04;;;;;;;4.60;1.70;;;6.00;30.80;;;;;;4934982;29;20843;-69
2024/01/23 04:52:30;;;;;;;7.90;2.20;;;6.00;30.70;;;;;;4935927;29;20239;-69
2024/01/23 04:54:56;;;;;;;6.70;1.80;;;6.00;31.50;;;;;;4935587;29;20419;-69
2024/01/23 04:57:21;;;;;;;3.20;1.70;;;5.90;32.50;;;;;;4934640;29;20220;-69
2024/01/23 04:59:48;;;;;;;6.77;2.17;;;5.90;32.20;;;;;;4935677;29;20215;-69
2024/01/23 05:02:13;;;;;;;6.77;1.63;;;5.90;31.00;;;;;;4935872;29;20186;-69
2024/01/23 05:04:39;;;;;;;4.33;1.63;;;5.90;31.00;;;;;;4935387;29;20903;-69
2024/01/23 05:07:05;;;;;;;9.23;1.97;;;6.00;30.90;;;;;;4935564;29;20651;-69
2024/01/23 05:09:31;;;;;;;7.30;2.47;;;6.00;30.60;;;;;;4935459;29;20192;-69
2024/01/23 05:12:00;;;;;;;2.90;1.50;;;6.00;29.90;;;;;;4935207;29;20230;-69
2024/01/23 05:14:26;;;;;;;6.87;1.60;;;6.00;29.70;;;;;;4935175;29;20433;-69
2024/01/23 05:16:51;;;;;;;3.97;1.70;;;5.90;31.90;;;;;;4935669;29;20930;-69
2024/01/23 05:19:17;;;;;;;4.30;1.70;;;5.80;34.10;;;;;;4935448;29;20194;-69
2024/01/23 05:21:43;;;;;;;7.47;2.00;;;5.80;36.80;;;;;;4936172;29;20663;-68
2024/01/23 05:24:08;;;;;;;4.83;1.80;;;5.60;38.60;;;;;;4936018;29;20559;-68
2024/01/23 05:26:34;;;;;;;2.13;1.33;;;5.60;41.10;;;;;;4935918;29;20273;-68
2024/01/23 05:28:59;;;;;;;3.93;1.73;;;5.50;42.70;;;;;;4934625;29;20183;-68
2024/01/23 05:31:25;;;;;;;8.63;1.80;;;5.40;45.40;;;;;;4935588;29;20261;-68
2024/01/23 05:33:50;;;;;;;5.90;1.70;;;5.20;41.90;;;;;;4934038;29;20202;-69
2024/01/23 05:36:17;;;;;;;3.30;1.70;;;5.10;44.10;;;;;;4934678;29;20183;-68
2024/01/23 05:38:43;;;;;;;6.33;1.63;;;5.00;45.80;;;;;;4967905;28;20192;-69
2024/01/23 05:41:09;;;;;;;10.00;1.77;;;5.00;47.30;;;;;;4973375;28;20912;-68
2024/01/23 05:43:34;;;;;;;4.50;1.40;;;5.00;47.50;;;;;;4973154;28;20208;-67
2024/01/23 05:46:02;;;;;;;7.03;1.70;;;4.90;48.10;;;;;;4972709;28;20740;-69
2024/01/23 05:48:27;;;;;;;10.37;4.17;;;4.80;48.60;;;;;;4972512;28;20676;-68
2024/01/23 05:50:53;;;;;;;3.97;1.90;;;4.90;51.40;;;;;;4972621;28;20514;-70
2024/01/23 05:53:18;;;;;;;2.53;1.10;;;4.90;50.30;;;;;;4972387;28;20208;-69
2024/01/23 05:55:44;;;;;;;7.03;1.53;;;4.90;50.30;;;;;;4971220;28;20223;-69
2024/01/23 05:58:10;;;;;;;4.50;2.10;;;4.90;51.30;;;;;;4972639;28;20188;-69
2024/01/23 06:00:35;;;;;;;8.43;1.60;;;4.80;50.50;;;;;;4972648;28;20189;-68
2024/01/23 06:03:01;;;;;;;10.43;1.87;;;4.80;51.10;;;;;;4972707;28;20304;-69
2024/01/23 06:05:26;;;;;;;3.03;1.60;;;4.70;51.70;;;;;;4972351;28;20400;-69
2024/01/23 06:07:52;;;;;;;2.13;1.00;;;4.70;53.10;;;;;;4972725;28;20184;-69
2024/01/23 06:10:17;;;;;;;5.13;1.30;;;4.50;51.40;;;;;;4972617;28;20243;-69
2024/01/23 06:12:44;;;;;;;6.63;2.03;;;4.40;49.70;;;;;;4972434;28;20204;-69
2024/01/23 06:15:10;;;;;;;4.63;1.47;;;4.30;49.60;;;;;;4972270;28;20228;-69
2024/01/23 06:17:36;;;;;;;3.07;1.00;;;4.20;49.70;;;;;;4972423;28;20422;-69
2024/01/23 06:20:05;;;;;;;3.37;0.90;;;4.20;49.60;;;;;;4972485;28;20946;-69
2024/01/23 06:22:31;;;;;;;2.33;0.90;;;4.20;49.90;;;;;;4972396;28;20742;-69
2024/01/23 06:25:04;;;;;;;4.70;1.30;;;4.20;49.20;;;;;;4972633;28;20178;-69
2024/01/23 06:27:30;;;;;;;1.63;0.63;;;4.20;50.10;;;;;;4972532;28;20416;-69
2024/01/23 06:29:56;;;;;;;2.23;1.10;;;4.30;49.10;;;;;;4972189;28;20796;-70
2024/01/23 06:32:21;;;;;;;2.07;1.00;;;4.30;49.10;;;;;;4972282;28;20578;-69
2024/01/23 06:34:47;;;;;;;3.80;0.90;;;4.30;49.50;;;;;;4972049;28;20235;-69
2024/01/23 06:37:14;;;;;;;3.10;1.00;;;4.30;50.30;;;;;;4971060;28;20185;-69
2024/01/23 06:39:39;;;;;;;4.73;0.90;;;4.30;50.80;;;;;;4972877;28;20207;-68
2024/01/23 06:42:05;;;;;;;3.37;1.50;;;4.40;50.40;;;;;;4970990;28;20444;-68
2024/01/23 06:44:30;;;;;;;4.73;1.93;;;4.40;50.20;;;;;;4972097;28;20722;-68
2024/01/23 06:46:56;;;;;;;4.33;1.93;;;4.40;49.40;;;;;;4972357;28;20204;-68
2024/01/23 06:49:21;;;;;;;4.07;1.50;;;4.40;48.90;;;;;;4970683;28;20345;-69
2024/01/23 06:51:47;;;;;;;4.43;1.97;;;4.40;51.40;;;;;;4972676;28;20311;-68
2024/01/23 06:54:12;;;;;;;2.97;1.50;;;4.50;51.70;;;;;;4972577;28;20233;-67
2024/01/23 06:56:39;;;;;;;2.63;1.40;;;4.40;50.40;;;;;;4972818;28;20525;-68
2024/01/23 06:59:05;;;;;;;2.17;1.03;;;4.40;51.30;;;;;;4971042;28;20177;-68
2024/01/23 07:01:30;;;;;;;2.30;0.93;;;4.40;51.20;;;;;;4976498;28;20420;-68
2024/01/23 07:03:56;;;;;;;3.60;1.33;;;4.40;50.80;;;;;;4996391;23;20506;-70
2024/01/23 07:06:22;;;;;;;4.07;1.47;;;4.30;50.70;;;;;;4975901;28;20189;-69
2024/01/23 07:08:52;;;;;;;4.67;1.00;;;4.30;50.20;;;;;;4976008;28;20557;-69
2024/01/23 07:11:23;;;;;;;4.03;1.20;;;4.20;50.40;;;;;;4974216;28;20212;-70
2024/01/23 07:13:53;;;;;;;3.53;2.20;;;4.10;49.90;;;;;;4975721;28;20477;-70
2024/01/23 07:16:19;;;;;;;2.27;1.23;;;4.00;51.20;;;;;;4975836;28;20413;-70
2024/01/23 07:18:45;;;;;;;6.13;1.30;;;3.90;52.60;;;;;;4976048;28;20465;-70
2024/01/23 07:21:11;;;;;;;4.37;1.70;;;3.80;52.90;;;;;;4976040;28;20420;-69
2024/01/23 07:23:37;;;;;;;4.40;0.90;;;3.80;53.30;;;;;;4974891;28;20673;-69
2024/01/23 07:26:02;;;;;;;4.83;2.77;;;3.70;54.60;;;;;;4976085;28;20259;-69
2024/01/23 07:28:28;;;;;;;4.00;1.37;;;3.70;54.70;;;;;;4976022;28;20614;-74
2024/01/23 07:30:54;;;;;;;2.57;1.00;;;3.60;55.00;;;;;;4976023;28;20212;-71
2024/01/23 07:33:23;;;;;;;1.90;0.97;;;3.50;56.60;;;;;;4974729;28;20822;-69
2024/01/23 07:35:50;;;;;;;2.22;1.10;;;3.60;56.70;;;;;;4976091;28;20717;-69
2024/01/23 07:38:16;;;;;;;3.80;2.00;;;3.60;56.70;;;;;;4975467;28;20199;-68
2024/01/23 07:40:41;;;;;;;2.22;1.00;;;3.70;58.80;;;;;;4976377;28;20439;-68
2024/01/23 07:43:07;;;;;;;4.50;1.87;;;3.70;59.70;;;;;;4974934;28;20204;-69
2024/01/23 07:45:33;;;;;;;2.70;1.80;;;3.80;60.10;;;;;;4975398;28;20686;-69
2024/01/23 07:47:59;;;;;;;2.17;0.90;;;3.90;61.70;;;;;;4961786;28;20263;-69
2024/01/23 07:50:27;;;;;;;2.00;1.13;;;4.00;62.50;;;;;;4967403;28;20960;-70
2024/01/23 07:52:53;;;;;;;3.80;1.30;;;4.20;62.00;;;;;;4962086;28;20186;-67
2024/01/23 07:55:19;;;;;;;4.30;1.30;;;4.30;60.40;;;;;;4955801;28;20424;-68
2024/01/23 07:57:44;;;;;;;5.30;2.00;;;4.30;58.90;;;;;;4955971;28;20417;-69
2024/01/23 08:00:11;;;;;;;3.27;1.60;;;4.30;56.30;;;;;;4962744;28;20435;-68
2024/01/23 08:02:37;;;;;;;4.13;1.83;;;4.30;55.40;;;;;;4974632;28;20254;-68
2024/01/23 08:05:03;;;;;;;3.97;1.50;;;4.30;54.30;;;;;;4960005;28;20915;-68
2024/01/23 08:07:28;;;;;;;6.57;2.40;;;4.30;54.60;;;;;;4956411;28;20186;-70
2024/01/23 08:09:54;;;;;;;2.70;1.40;;;4.40;54.20;;;;;;4955587;28;20457;-69
2024/01/23 08:12:20;;;;;;;5.23;1.80;;;4.50;55.00;;;;;;4955652;28;20239;-67
2024/01/23 08:14:46;;;;;;;6.90;1.53;;;4.60;55.50;;;;;;4968069;28;20209;-69
2024/01/23 08:17:11;;;;;;;4.07;2.30;;;4.80;55.30;;;;;;4974054;28;20972;-69
2024/01/23 08:19:39;;;;;;;3.20;1.93;;;5.00;54.80;;;;;;4972052;28;20676;-71
2024/01/23 08:22:05;;;;;;;3.60;2.43;;;5.10;51.80;;;;;;4973163;28;20184;-70
2024/01/23 08:24:31;;;;;;;3.30;1.70;;;5.10;51.50;;;;;;4970582;28;20834;-70
2024/01/23 08:26:56;;;;;;;6.07;2.40;;;5.10;50.50;;;;;;4965000;28;20285;-70
2024/01/23 08:29:22;;;;;;;2.60;1.87;;;5.20;49.90;;;;;;4969375;28;20185;-70
2024/01/23 08:31:48;;;;;;;3.23;1.30;;;5.20;49.70;;;;;;4970102;28;20220;-69
2024/01/23 08:34:13;;;;;;;4.40;2.47;;;5.20;50.90;;;;;;4968789;28;20217;-70
2024/01/23 08:36:41;;;;;;;3.93;1.97;;;5.30;52.20;;;;;;4973293;28;20182;-69
2024/01/23 08:39:08;;;;;;;2.63;1.33;;;5.30;50.70;;;;;;4969738;28;20212;-71
2024/01/23 08:41:33;;;;;;;6.43;2.80;;;5.30;49.50;;;;;;4960764;28;20910;-69
2024/01/23 08:43:59;;;;;;;3.80;1.70;;;5.30;48.40;;;;;;4956281;28;20537;-69
2024/01/23 08:46:28;;;;;;;3.60;1.80;;;5.20;49.50;;;;;;4969373;28;20185;-70
2024/01/23 08:48:54;;;;;;;7.30;2.13;;;5.20;49.30;;;;;;4969784;28;20615;-68
2024/01/23 08:51:21;;;;;;;2.67;1.87;;;5.20;49.40;;;;;;4971546;28;20526;-70
2024/01/23 08:53:47;;;;;;;3.23;1.90;;;5.20;50.00;;;;;;4971021;28;20232;-70
2024/01/23 08:56:12;;;;;;;12.03;2.17;;;5.20;51.50;;;;;;4962173;28;20446;-69
2024/01/23 08:58:38;;;;;;;3.60;1.50;;;5.40;53.60;;;;;;4954368;28;20193;-69
2024/01/23 09:01:04;;;;;;;4.47;1.90;;;5.50;52.00;;;;;;4963197;28;20186;-70
2024/01/23 09:03:30;;;;;;;3.43;2.00;;;5.70;50.10;;;;;;4965323;28;20228;-71
2024/01/23 09:05:58;;;;;;;3.53;1.57;;;5.80;50.60;;;;;;4973380;28;21028;-71
2024/01/23 09:08:27;;;;;;;5.63;1.50;;;6.00;49.90;;;;;;4968978;28;20419;-70
2024/01/23 09:10:52;;;;;;;4.90;2.30;;;6.10;49.90;;;;;;4972030;28;20462;-70
2024/01/23 09:13:18;;;;;;;4.10;2.07;;;6.20;48.50;;;;;;4986715;28;20458;-69
2024/01/23 09:15:44;;;;;;;3.70;1.90;;;6.40;47.90;;;;;;4973039;28;20213;-68
2024/01/23 09:18:09;;;;;;;2.47;1.57;;;6.30;42.90;;;;;;4973231;28;20425;-68
2024/01/23 09:20:35;;;;;;;12.93;2.93;;;6.20;47.10;;;;;;4973747;28;20185;-70
2024/01/23 09:23:00;;;;;;;4.63;2.10;;;6.10;46.90;;;;;;4972467;28;20215;-68
2024/01/23 09:25:27;;;;;;;6.67;1.83;;;;;;;;;;4966597;28;20274;-69
2024/01/23 09:27:53;;;;;;;4.20;1.67;;;5.90;25.80;;;;;;4965828;28;20284;-69
2024/01/23 09:30:19;;;;;;;5.13;1.90;;;6.00;26.50;;;;;;4966686;28;20461;-68
2024/01/23 09:32:45;;;;;;;4.77;2.20;;;5.90;27.50;;;;;;4968546;28;20430;-69
2024/01/23 09:35:12;;;;;;;5.30;2.07;;;5.90;26.70;;;;;;4969736;28;20433;-69
2024/01/23 09:37:38;;;;;;;5.57;1.80;;;6.00;24.90;;;;;;4956562;28;20224;-70
2024/01/23 09:40:06;;;;;;;3.03;1.57;;;6.20;25.00;;;;;;4954426;28;20462;-70
2024/01/23 09:42:34;;;;;;;4.37;2.00;;;6.30;24.60;;;;;;4963082;28;20434;-69
2024/01/23 09:45:04;;;;;;;7.80;2.00;;;6.30;22.00;;;;;;4956824;28;20473;-70
2024/01/23 09:47:29;;;;;;;5.83;2.07;;;6.40;20.60;;;;;;4968892;28;20484;-70
2024/01/23 09:49:56;;;;;;;9.47;2.07;;;6.60;21.20;;;;;;4969675;28;20463;-69
2024/01/23 09:52:22;;;;;;;6.60;1.50;;;6.60;18.70;;;;;;4969304;28;20796;-70
2024/01/23 09:54:48;;;;;;;8.40;2.40;;;6.60;17.50;;;;;;4960011;28;20488;-68
2024/01/23 09:57:14;;;;;;;12.50;2.47;;;6.60;18.90;;;;;;4957734;28;20448;-69
2024/01/23 09:59:40;;;;;;;3.07;1.43;;;6.60;17.20;;;;;;4952349;28;20183;-69
2024/01/23 10:02:08;;;;;;;4.27;1.33;;;6.60;17.10;;;;;;4956271;28;20469;-70
2024/01/23 10:04:35;;;;;;;4.10;1.43;;;6.60;16.50;;;;;;4963903;28;20591;-70
2024/01/23 10:07:10;;;;;;;4.33;1.90;;;6.70;14.40;;;;;;4973402;28;20514;-70
2024/01/23 10:09:38;;;;;;;3.43;1.77;;;6.70;16.00;;;;;;4965860;28;20446;-70
2024/01/23 10:12:04;;;;;;;9.20;2.00;;;6.80;15.00;;;;;;4972387;28;20852;-69
2024/01/23 10:14:30;;;;;;;5.83;2.60;;;6.90;15.40;;;;;;4972142;28;20535;-70
2024/01/23 10:16:56;;;;;;;6.87;1.77;;;7.00;13.70;;;;;;4973376;28;20240;-68
2024/01/23 10:19:21;;;;;;;3.80;1.60;;;7.10;13.50;;;;;;4963449;28;20470;-69
2024/01/23 10:21:47;;;;;;;3.13;1.50;;;7.10;12.50;;;;;;4952384;29;20429;-67
2024/01/23 10:24:12;;;;;;;7.93;2.07;;;7.30;12.30;;;;;;4957932;28;20204;-69
2024/01/23 10:26:38;;;;;;;3.97;1.83;;;7.50;13.20;;;;;;4955587;28;20186;-69
2024/01/23 10:29:04;;;;;;;5.80;2.30;;;7.80;8.70;;;;;;4973676;28;20185;-69
2024/01/23 10:31:30;;;;;;;5.57;2.00;;;8.10;4.70;;;;;;4974209;28;20328;-71
2024/01/23 10:33:57;;;;;;;6.80;2.27;;;8.20;4.80;;;;;;4972056;28;20811;-70
2024/01/23 10:36:23;;;;;;;7.70;2.10;;;8.30;2.90;;;;;;4975460;28;20437;-70
2024/01/23 10:38:50;;;;;;;8.93;2.83;;;8.40;2.80;;;;;;4967614;28;20429;-70
2024/01/23 10:41:18;;;;;;;4.80;1.70;;;8.40;1.80;;;;;;4958307;28;20426;-69
2024/01/23 10:43:46;;;;;;;4.63;2.23;;;8.30;1.90;;;;;;4976022;28;20535;-69
2024/01/23 10:46:12;;;;;;;5.00;1.77;;;8.10;3.80;;;;;;4975713;28;20758;-68
2024/01/23 10:48:37;;;;;;;4.23;1.80;;;8.00;2.70;;;;;;4976732;28;20511;-69
2024/01/23 10:51:28;;;;;;;4.73;2.00;;;7.90;3.50;;;;;;4976542;28;20229;-69
2024/01/23 10:54:01;;;;;;;4.70;1.63;;;7.70;1.00;;;;;;4974807;28;20738;-69
2024/01/23 10:56:39;;;;;;;5.03;2.07;;;7.60;1.00;;;;;;4971224;28;20421;-69
2024/01/23 10:59:15;;;;;;;5.53;2.07;;;7.70;1.00;;;;;;4957266;28;20451;-69
2024/01/23 11:01:43;;;;;;;4.90;1.53;;;7.70;1.00;;;;;;4957152;28;20428;-70
2024/01/23 11:04:09;;;;;;;16.17;2.63;;;7.70;1.00;;;;;;4956290;28;20507;-71
2024/01/23 11:06:43;;;;;;;12.30;2.33;;;7.80;1.20;;;;;;4956814;29;20418;-71
2024/01/23 11:09:18;;;;;;;6.33;2.03;;;7.90;1.00;;;;;;4973910;28;20584;-68
2024/01/23 11:11:58;;;;;;;10.23;2.77;;;7.90;1.00;;;;;;4974293;28;20471;-70
2024/01/23 11:14:30;;;;;;;13.63;2.47;;;8.00;1.00;;;;;;4974719;28;20444;-70
2024/01/23 11:17:03;;;;;;;6.70;1.80;;;8.10;1.00;;;;;;4974001;28;20436;-70
2024/01/23 11:19:28;;;;;;;4.33;1.60;;;8.30;1.00;;;;;;4975788;28;20416;-70
2024/01/23 11:22:01;;;;;;;8.77;3.63;;;8.20;1.00;;;;;;4957873;28;20434;-70
2024/01/23 11:24:44;;;;;;;5.07;2.60;;;8.10;1.00;;;;;;4954583;28;20291;-69
2024/01/23 11:27:28;;;;;;;10.87;2.77;;;8.10;1.00;;;;;;4956359;29;20917;-69
2024/01/23 11:29:56;;;;;;;5.00;1.80;;;8.20;1.00;;;;;;4972589;28;20435;-69
2024/01/23 11:32:23;;;;;;;3.73;1.93;;;8.30;1.00;;;;;;4964355;28;20441;-68
2024/01/23 11:35:03;;;;;;;5.40;2.40;;;8.30;1.00;;;;;;4955668;29;20779;-69
2024/01/23 11:37:35;;;;;;;6.37;2.20;;;;;;;;;;4956137;28;20444;-69
2024/01/23 11:40:05;;;;;;;4.67;1.73;;;8.40;1.00;;;;;;4956161;28;20410;-69
2024/01/23 11:42:41;;;;;;;5.07;1.83;;;8.50;1.00;;;;;;4955921;28;20416;-68
2024/01/23 11:45:23;;;;;;;7.70;2.77;;;;;;;;;;4963597;28;20424;-69
2024/01/23 11:47:56;;;;;;;6.83;3.10;;;;;;;;;;4955877;28;20420;-70
2024/01/23 11:50:23;;;;;;;11.23;2.80;;;8.50;1.00;;;;;;4955872;28;20457;-69
2024/01/23 11:52:52;;;;;;;5.73;2.30;;;8.50;1.00;;;;;;4954408;28;20496;-68
2024/01/23 11:55:19;;;;;;;3.83;2.27;;;8.70;1.00;;;;;;4955565;29;20469;-68
2024/01/23 11:57:44;;;;;;;3.60;1.80;;;8.60;1.00;;;;;;4969694;28;20452;-68
2024/01/23 12:00:10;;;;;;;5.10;2.37;;;8.60;1.00;;;;;;4974740;28;20942;-69
2024/01/23 12:02:37;;;;;;;8.50;3.00;;;8.60;1.00;;;;;;4960974;28;20200;-69
2024/01/23 12:05:03;;;;;;;5.53;3.37;;;8.70;1.00;;;;;;4955372;28;20899;-68
2024/01/23 12:07:29;;;;;;;6.70;1.97;;;8.80;1.00;;;;;;4955641;28;20418;-70
2024/01/23 12:09:59;;;;;;;4.50;2.10;;;8.70;1.00;;;;;;4955375;28;20421;-70
2024/01/23 12:12:27;;;;;;;3.80;1.97;;;8.70;1.00;;;;;;4955262;28;20185;-68
2024/01/23 12:14:53;;;;;;;7.60;3.13;;;8.90;1.00;;;;;;4956241;28;20535;-68
2024/01/23 12:17:18;;;;;;;6.43;3.10;;;9.20;1.00;;;;;;4964224;28;20928;-69
2024/01/23 12:19:46;;;;;;;4.43;2.30;;;9.30;1.00;;;;;;4974203;28;20633;-69
2024/01/23 12:22:12;;;;;;;3.90;2.23;;;9.20;1.00;;;;;;4955484;28;20181;-69
2024/01/23 12:24:38;;;;;;;7.27;2.50;;;9.10;1.00;;;;;;4954893;28;20430;-69
2024/01/23 12:27:04;;;;;;;5.03;2.43;;;8.90;1.00;;;;;;4955269;28;20756;-69
2024/01/23 12:29:30;;;;;;;3.40;1.53;;;8.70;1.00;;;;;;4954266;28;20421;-69
2024/01/23 12:31:56;;;;;;;3.70;2.40;;;8.50;1.00;;;;;;4955091;28;20210;-69
2024/01/23 12:34:22;;;;;;;5.10;2.10;;;8.40;1.00;;;;;;4955054;28;20433;-69
2024/01/23 12:36:50;;;;;;;6.23;2.30;;;8.20;1.00;;;;;;4955428;29;20504;-70
2024/01/23 12:39:16;;;;;;;6.50;3.00;;;8.10;1.00;;;;;;4955188;28;20615;-69
2024/01/23 12:41:42;;;;;;;4.50;1.90;;;8.00;1.00;;;;;;4959356;28;20444;-67
2024/01/23 12:44:08;;;;;;;4.20;2.60;;;7.90;1.00;;;;;;4954975;28;20538;-69
2024/01/23 12:46:33;;;;;;;4.63;2.43;;;8.00;1.00;;;;;;4971815;28;20191;-69
2024/01/23 12:49:06;;;;;;;5.30;2.33;;;8.00;1.00;;;;;;4966787;28;20200;-71
2024/01/23 12:51:32;;;;;;;7.73;2.27;;;8.10;1.00;;;;;;4953417;28;20265;-71
2024/01/23 12:53:59;;;;;;;6.33;1.93;;;8.10;1.00;;;;;;4953948;29;20585;-69
2024/01/23 12:56:25;;;;;;;10.93;1.80;;;8.10;1.00;;;;;;4954352;28;20926;-68